Rutherford, NJ (07070)

6:52 AM EST on January 31, 2015 (GMT -0500)
Rutherford | Change Station
CLOSE
Current Station
Personal Weather Station
Location: Rutherford, NJ
Elevation: 66 ft
Nearby Weather Stations

Elev 66 ft 40.82 °N, 74.11 °W | Updated 0 second ago

Clear
Clear
12.4 °F
Feels Like 7 °F
N
3.1
Wind Variable Wind from NNE
Gusts 6.0 mph

Today
High -- | Low -- °F
--% Chance of Precip.
Yesterday
High -- | Low -- °F
Precip. -- in
7:07 AM 5:12 PM
Waxing Gibbous, 89% visible
Pressure 30.10 in
Visibility 10.0 miles
Clouds Clear
Windchill 7 °F
Dew Point -1 °F
Humidity 54%
Rainfall 0.00 in
Snow Depth Not available.
UV 0 out of 12
Pollen .10 out of 12
Air Quality Not available.
Flu Activity Not available.
METAR KTEB 311051Z 33015G25KT 10SM CLR M11/M21 A3010 RMK AO2 PK WND 31027/1019 SLP192 T11061206

More Conditions Fewer Conditions

Pressure 30.10 in
Visibility 10.0 miles
Clouds Clear
Windchill 7 °F
Dew Point -1 °F
Humidity 54%
Rainfall 0.00 in
Snow Depth Not available.
UV 0 out of 12
Pollen .10 out of 12
Air Quality Not available.
Flu Activity Not available.
METAR KTEB 311051Z 33015G25KT 10SM CLR M11/M21 A3010 RMK AO2 PK WND 31027/1019 SLP192 T11061206

More Conditions Fewer Conditions

10-Day Weather Forecast

Almanac

Astronomy

Jan. 31, 2015 Rise Set
Actual Time
Civil Twilight
Nautical Twilight
Astronomical Twilight
Moon
Length of Visible Light
Length of Day
Tomorrow will be .
, % of the Moon is Illuminated

Today's Extremes

State Highs State Lows

Community

WunderPhotos

Upload Photos

1,792,032 photos uploaded!

WunderBlogs® & News

Nearby

Air Quality

  Air Quality AQ Index Pollutant
Not available.

Snow Depth

Station Depth Elevation

Earthquake Activity

City Distance Mag. Time & Date
Minimum magnitude displayed is 2.5.

Coastal Water Temperatures

Place Temperature

Nearby Weather Stations